createdAt,value
2022-09-28T00:02:06.348Z,4.60
2022-09-28T00:04:35.323Z,6.80
2022-09-28T00:07:04.534Z,3.70
2022-09-28T00:09:34.362Z,5.60
2022-09-28T00:12:03.670Z,4.70
2022-09-28T00:14:32.972Z,6.50
2022-09-28T00:17:02.517Z,5.80
2022-09-28T00:19:31.674Z,6.70
2022-09-28T00:22:00.972Z,8.00
2022-09-28T00:24:31.003Z,8.30
2022-09-28T00:27:02.362Z,5.70
2022-09-28T00:29:36.855Z,6.40
2022-09-28T00:32:16.280Z,6.30
2022-09-28T00:34:49.601Z,5.90
2022-09-28T00:37:20.145Z,7.10
2022-09-28T00:39:50.020Z,5.20
2022-09-28T00:42:22.636Z,8.20
2022-09-28T00:44:56.623Z,8.90
2022-09-28T00:47:42.712Z,4.20
2022-09-28T00:50:23.593Z,5.10
2022-09-28T00:53:15.834Z,6.60
2022-09-28T00:56:10.014Z,7.40
2022-09-28T00:58:46.768Z,5.30
2022-09-28T01:01:16.256Z,5.00
2022-09-28T01:03:47.356Z,3.60
2022-09-28T01:06:23.626Z,3.80
2022-09-28T01:08:56.492Z,5.40
2022-09-28T01:11:27.848Z,5.30
2022-09-28T01:13:58.383Z,5.20
2022-09-28T01:16:47.789Z,3.90
2022-09-28T01:19:46.056Z,3.30
2022-09-28T01:25:07.962Z,4.70
2022-09-28T01:27:40.158Z,2.80
2022-09-28T01:30:15.538Z,6.10
2022-09-28T01:33:08.229Z,4.40
2022-09-28T01:36:16.334Z,6.10
2022-09-28T01:38:53.609Z,6.50
2022-09-28T01:41:26.813Z,5.30
2022-09-28T01:43:58.068Z,5.00
2022-09-28T01:46:49.485Z,4.60
2022-09-28T01:49:32.033Z,3.70
2022-09-28T01:52:42.362Z,4.50
2022-09-28T01:55:39.913Z,4.40
2022-09-28T01:58:19.466Z,3.90
2022-09-28T02:00:54.451Z,6.40
2022-09-28T02:03:37.408Z,2.80
2022-09-28T02:06:19.514Z,4.10
2022-09-28T02:08:58.165Z,2.70
2022-09-28T02:11:27.945Z,3.20
2022-09-28T02:14:05.234Z,2.70
2022-09-28T02:16:41.831Z,3.80
2022-09-28T02:19:20.629Z,4.10
2022-09-28T02:22:24.048Z,3.80
2022-09-28T02:25:14.766Z,4.00
2022-09-28T02:27:52.210Z,3.00
2022-09-28T02:30:21.622Z,4.30
2022-09-28T02:32:54.323Z,5.00
2022-09-28T02:35:23.923Z,4.70
2022-09-28T02:37:55.996Z,2.60
2022-09-28T02:40:32.594Z,2.60
2022-09-28T02:43:23.359Z,4.10
2022-09-28T02:45:55.703Z,4.00
2022-09-28T02:48:43.221Z,4.40
2022-09-28T02:51:42.864Z,4.30
2022-09-28T02:54:35.190Z,2.60
2022-09-28T03:00:08.822Z,2.60
2022-09-28T03:02:51.313Z,4.90
2022-09-28T03:05:32.902Z,4.20
2022-09-28T03:08:12.233Z,4.70
2022-09-28T03:10:54.988Z,2.90
2022-09-28T03:13:26.556Z,3.10
2022-09-28T03:16:15.336Z,2.90
2022-09-28T03:18:45.395Z,2.80
2022-09-28T03:21:16.450Z,2.80
2022-09-28T03:23:45.642Z,4.30
2022-09-28T03:26:17.396Z,3.90
2022-09-28T03:28:46.415Z,3.10
2022-09-28T03:31:15.579Z,3.30
2022-09-28T03:33:44.607Z,4.90
2022-09-28T03:36:15.935Z,4.30
2022-09-28T03:38:45.251Z,2.90
2022-09-28T03:41:17.304Z,3.20
2022-09-28T03:43:46.502Z,3.90
2022-09-28T03:46:16.450Z,2.80
2022-09-28T03:48:46.142Z,2.90
2022-09-28T03:51:15.336Z,2.50
2022-09-28T03:53:44.841Z,3.00
2022-09-28T03:56:16.593Z,4.00
2022-09-28T03:58:45.901Z,3.10
2022-09-28T04:01:19.203Z,4.20
2022-09-28T04:03:54.252Z,3.00
2022-09-28T04:06:24.724Z,3.80
2022-09-28T04:08:53.755Z,3.10
2022-09-28T04:11:22.934Z,3.40
2022-09-28T04:13:52.381Z,4.10
2022-09-28T04:16:21.711Z,2.90
2022-09-28T04:18:50.739Z,2.50
2022-09-28T04:21:21.850Z,3.30
2022-09-28T04:23:50.912Z,2.50
2022-09-28T04:26:23.552Z,4.10
2022-09-28T04:29:12.300Z,4.10
2022-09-28T04:31:45.793Z,3.50
2022-09-28T04:34:18.358Z,4.00
2022-09-28T04:36:48.787Z,3.30
2022-09-28T04:39:22.117Z,3.50
2022-09-28T04:41:51.807Z,3.90
2022-09-28T04:44:20.914Z,3.20
2022-09-28T04:46:50.166Z,2.70
2022-09-28T04:49:19.142Z,2.50
2022-09-28T04:51:48.515Z,4.00
2022-09-28T04:54:18.013Z,4.00
2022-09-28T04:56:47.306Z,4.40
2022-09-28T04:59:16.722Z,3.90
2022-09-28T05:01:46.225Z,4.30
2022-09-28T05:04:15.325Z,3.50
2022-09-28T05:06:44.711Z,3.10
2022-09-28T05:09:14.070Z,4.20
2022-09-28T05:11:43.424Z,4.40
2022-09-28T05:14:13.017Z,3.80
2022-09-28T05:16:42.145Z,3.20
2022-09-28T05:19:12.886Z,3.10
2022-09-28T05:21:46.093Z,2.50
2022-09-28T05:24:15.501Z,3.40
2022-09-28T05:26:44.686Z,2.60
2022-09-28T05:29:13.819Z,3.00
2022-09-28T05:31:43.097Z,3.70
2022-09-28T05:34:12.255Z,2.30
2022-09-28T05:36:43.690Z,3.30
2022-09-28T05:39:12.906Z,2.80
2022-09-28T05:41:42.612Z,2.70
2022-09-28T05:44:11.917Z,2.10
2022-09-28T05:46:41.312Z,2.30
2022-09-28T05:49:11.014Z,3.60
2022-09-28T05:51:40.210Z,2.80
2022-09-28T05:54:09.926Z,5.00
2022-09-28T05:56:39.155Z,5.90
2022-09-28T05:59:08.327Z,3.90
2022-09-28T06:01:37.638Z,2.50
2022-09-28T06:04:06.823Z,3.10
2022-09-28T06:06:37.267Z,3.80
2022-09-28T06:09:06.553Z,2.70
2022-09-28T06:11:36.051Z,2.60
2022-09-28T06:14:05.797Z,3.80
2022-09-28T06:16:36.650Z,3.90
2022-09-28T06:19:12.962Z,2.70
2022-09-28T06:21:42.372Z,3.40
2022-09-28T06:24:11.684Z,4.50
2022-09-28T06:26:42.106Z,3.30
2022-09-28T06:29:13.679Z,3.80
2022-09-28T06:31:46.235Z,2.70
2022-09-28T06:34:15.301Z,3.30
2022-09-28T06:36:44.562Z,4.10
2022-09-28T06:39:13.805Z,2.90
2022-09-28T06:41:43.056Z,3.20
2022-09-28T06:44:12.014Z,3.10
2022-09-28T06:46:41.738Z,2.40
2022-09-28T06:49:10.916Z,3.00
2022-09-28T06:51:40.355Z,3.70
2022-09-28T06:54:10.058Z,2.90
2022-09-28T06:56:39.348Z,3.70
2022-09-28T06:59:08.647Z,3.20
2022-09-28T07:01:37.893Z,2.80
2022-09-28T07:04:07.357Z,3.10
2022-09-28T07:06:36.948Z,2.80
2022-09-28T07:09:24.947Z,2.90
2022-09-28T07:11:59.327Z,5.20
2022-09-28T07:14:46.045Z,6.50
2022-09-28T07:17:18.367Z,3.40
2022-09-28T07:19:51.786Z,4.30
2022-09-28T07:22:32.230Z,3.60
2022-09-28T07:25:08.886Z,3.60
2022-09-28T07:27:38.123Z,3.00
2022-09-28T07:30:08.034Z,2.70
2022-09-28T07:32:37.824Z,4.10
2022-09-28T07:35:10.014Z,3.30
2022-09-28T07:37:39.523Z,3.20
2022-09-28T07:40:28.893Z,2.60
2022-09-28T07:43:05.579Z,2.80
2022-09-28T07:45:37.044Z,8.00
2022-09-28T07:48:06.546Z,3.90
2022-09-28T07:50:36.124Z,10.30
2022-09-28T07:53:05.834Z,9.10
2022-09-28T07:55:35.154Z,29.70
2022-09-28T07:58:04.252Z,21.20
2022-09-28T08:00:34.390Z,17.30
2022-09-28T08:03:04.310Z,14.20
2022-09-28T08:05:36.364Z,21.50
2022-09-28T08:08:05.349Z,10.80
2022-09-28T08:10:34.480Z,15.40
2022-09-28T08:13:06.407Z,11.40
2022-09-28T08:15:39.001Z,13.70
2022-09-28T08:18:08.202Z,7.20
2022-09-28T08:20:56.398Z,11.90
2022-09-28T08:23:26.192Z,8.60
2022-09-28T08:25:55.315Z,20.00
2022-09-28T08:28:25.504Z,14.80
2022-09-28T08:30:54.990Z,11.50
2022-09-28T08:33:24.185Z,23.40
2022-09-28T08:36:01.443Z,11.90
2022-09-28T08:38:31.781Z,18.30
2022-09-28T08:41:13.637Z,10.00
2022-09-28T08:43:57.897Z,17.00
2022-09-28T08:46:59.666Z,9.70
2022-09-28T08:49:51.176Z,6.80
2022-09-28T08:52:32.498Z,3.70
2022-09-28T08:55:12.823Z,3.50
2022-09-28T08:57:48.082Z,3.80
2022-09-28T09:00:36.302Z,5.50
2022-09-28T09:03:10.589Z,4.30
2022-09-28T09:05:48.942Z,4.60
2022-09-28T09:08:27.078Z,6.10
2022-09-28T09:11:40.694Z,3.90
2022-09-28T09:14:31.380Z,2.70
2022-09-28T09:17:08.003Z,3.30
2022-09-28T09:19:51.822Z,3.70
2022-09-28T09:22:46.184Z,4.10
2022-09-28T09:25:24.389Z,2.70
2022-09-28T09:28:32.306Z,3.10
2022-09-28T09:31:14.155Z,3.40
2022-09-28T09:34:04.067Z,4.70
2022-09-28T09:36:38.685Z,2.50
2022-09-28T09:39:29.411Z,4.20
2022-09-28T09:42:11.109Z,3.20
2022-09-28T09:44:53.099Z,2.50
2022-09-28T09:47:33.043Z,3.80
2022-09-28T09:50:17.605Z,3.90
2022-09-28T09:52:58.161Z,3.00
2022-09-28T09:55:46.008Z,2.00
2022-09-28T09:58:25.134Z,2.30
2022-09-28T10:00:59.028Z,1.90
2022-09-28T10:03:31.946Z,2.50
2022-09-28T10:06:17.302Z,6.30
2022-09-28T10:08:54.512Z,3.90
2022-09-28T10:11:30.042Z,3.60
2022-09-28T10:13:59.953Z,5.20
2022-09-28T10:16:29.291Z,3.60
2022-09-28T10:18:58.551Z,6.10
2022-09-28T10:21:28.366Z,7.50
2022-09-28T10:24:04.413Z,4.60
2022-09-28T10:26:38.072Z,1.90
2022-09-28T10:29:17.916Z,3.00
2022-09-28T10:31:51.075Z,1.20
2022-09-28T10:34:30.613Z,2.40
2022-09-28T10:37:11.381Z,1.90
2022-09-28T10:39:56.063Z,2.00
2022-09-28T10:42:32.643Z,2.40
2022-09-28T10:45:21.370Z,1.30
2022-09-28T10:47:51.383Z,2.20
2022-09-28T10:50:26.295Z,13.50
2022-09-28T10:53:21.051Z,3.50
2022-09-28T10:56:20.423Z,2.90
2022-09-28T10:58:49.528Z,4.50
2022-09-28T11:01:23.538Z,2.80
2022-09-28T11:04:02.165Z,3.40
2022-09-28T11:06:37.512Z,1.50
2022-09-28T11:09:27.220Z,1.70
2022-09-28T11:12:01.185Z,1.90
2022-09-28T11:14:42.689Z,2.80
2022-09-28T11:17:41.235Z,1.50
2022-09-28T11:20:28.219Z,2.70
2022-09-28T11:23:21.101Z,2.00
2022-09-28T11:26:06.896Z,2.60
2022-09-28T11:28:39.433Z,1.50
2022-09-28T11:31:10.285Z,2.50
2022-09-28T11:33:47.093Z,2.40
2022-09-28T11:36:19.300Z,1.60
2022-09-28T11:39:09.685Z,2.30
2022-09-28T11:41:49.097Z,1.20
2022-09-28T11:44:34.006Z,1.20
2022-09-28T11:47:28.248Z,1.00
2022-09-28T11:50:08.544Z,1.00
2022-09-28T11:53:14.262Z,1.40
2022-09-28T11:55:54.412Z,0.70
2022-09-28T11:58:50.759Z,1.40
2022-09-28T12:01:31.752Z,1.00
2022-09-28T12:04:14.858Z,4.60
2022-09-28T12:06:50.195Z,1.10
2022-09-28T12:09:46.633Z,1.30
2022-09-28T12:12:55.964Z,0.90
2022-09-28T12:16:15.067Z,0.70
2022-09-28T12:18:43.512Z,1.00
2022-09-28T12:21:53.872Z,1.30
2022-09-28T12:24:27.508Z,1.60
2022-09-28T12:27:08.252Z,1.60
2022-09-28T12:30:16.667Z,2.40
2022-09-28T12:33:21.591Z,1.00
2022-09-28T12:36:10.810Z,2.20
2022-09-28T12:39:14.839Z,1.10
2022-09-28T12:42:06.613Z,1.30
2022-09-28T12:44:59.129Z,4.90
2022-09-28T12:47:55.182Z,1.50
2022-09-28T12:50:57.428Z,6.40
2022-09-28T12:53:56.765Z,6.70
2022-09-28T12:56:41.634Z,6.40
2022-09-28T12:59:31.822Z,8.70
2022-09-28T13:02:22.896Z,9.20
2022-09-28T13:05:16.802Z,10.70
2022-09-28T13:07:50.386Z,11.50
2022-09-28T13:10:26.243Z,11.10
2022-09-28T13:13:09.673Z,16.30
2022-09-28T13:16:07.531Z,15.50
2022-09-28T13:18:39.798Z,13.70
2022-09-28T13:21:32.799Z,14.40
2022-09-28T13:24:27.803Z,11.40
2022-09-28T13:26:59.885Z,17.30
2022-09-28T13:29:29.239Z,15.70
2022-09-28T13:32:00.635Z,19.50
2022-09-28T13:34:33.702Z,26.60
2022-09-28T13:37:24.633Z,17.60
2022-09-28T13:39:59.616Z,15.90
2022-09-28T13:42:47.942Z,26.70
2022-09-28T13:45:23.633Z,17.70
2022-09-28T13:48:02.152Z,7.90
2022-09-28T13:50:52.854Z,6.60
2022-09-28T13:53:25.278Z,5.40
2022-09-28T13:56:31.903Z,9.60
2022-09-28T13:59:15.665Z,6.40
2022-09-28T14:02:07.335Z,4.40
2022-09-28T14:04:59.606Z,2.90
2022-09-28T14:07:37.730Z,5.90
2022-09-28T14:10:42.207Z,2.40
2022-09-28T14:13:13.001Z,3.60
2022-09-28T14:15:45.671Z,3.10
2022-09-28T14:18:32.258Z,2.10
2022-09-28T14:21:20.086Z,1.70
2022-09-28T14:24:27.210Z,3.60
2022-09-28T14:27:18.641Z,2.30
2022-09-28T14:29:51.396Z,2.20
2022-09-28T14:32:26.295Z,2.70
2022-09-28T14:35:05.154Z,2.20
2022-09-28T14:38:01.672Z,1.50
2022-09-28T14:41:11.737Z,2.20
2022-09-28T14:43:45.339Z,2.50
2022-09-28T14:46:17.752Z,2.40
2022-09-28T14:48:53.218Z,2.30
2022-09-28T14:51:30.767Z,2.30
2022-09-28T14:54:25.234Z,2.00
2022-09-28T14:56:54.816Z,1.10
2022-09-28T14:59:28.098Z,1.30
2022-09-28T15:02:12.911Z,3.40
2022-09-28T15:04:50.876Z,1.20
2022-09-28T15:07:42.233Z,1.30
2022-09-28T15:10:27.904Z,0.60
2022-09-28T15:12:58.443Z,1.60
2022-09-28T15:15:40.491Z,0.80
2022-09-28T15:18:44.552Z,0.80
2022-09-28T15:21:14.412Z,1.60
2022-09-28T15:23:45.775Z,1.60
2022-09-28T15:26:29.449Z,0.90
2022-09-28T15:28:59.397Z,1.00
2022-09-28T15:31:31.377Z,1.10
2022-09-28T15:34:19.720Z,0.50
2022-09-28T15:36:50.552Z,0.90
2022-09-28T15:39:32.877Z,1.30
2022-09-28T15:42:02.933Z,1.20
2022-09-28T15:44:35.645Z,2.10
2022-09-28T15:47:17.166Z,1.70
2022-09-28T15:49:59.406Z,1.20
2022-09-28T15:52:45.603Z,1.60
2022-09-28T15:55:29.044Z,3.30
2022-09-28T15:58:20.882Z,1.30
2022-09-28T16:00:52.540Z,2.50
2022-09-28T16:03:32.122Z,0.50
2022-09-28T16:06:10.267Z,1.20
2022-09-28T16:08:44.457Z,0.60
2022-09-28T16:11:22.560Z,0.90
2022-09-28T16:14:08.003Z,1.10
2022-09-28T16:16:52.765Z,1.10
2022-09-28T16:19:37.744Z,1.50
2022-09-28T16:22:15.823Z,2.50
2022-09-28T16:24:58.654Z,1.10
2022-09-28T16:27:47.072Z,1.50
2022-09-28T16:30:22.343Z,1.00
2022-09-28T16:33:03.155Z,1.00
2022-09-28T16:35:41.922Z,1.20
2022-09-28T16:38:16.856Z,3.90
2022-09-28T16:40:50.255Z,1.10
2022-09-28T16:43:29.192Z,0.90
2022-09-28T16:46:02.028Z,1.00
2022-09-28T16:48:33.006Z,1.10
2022-09-28T16:51:02.202Z,1.10
2022-09-28T16:53:50.435Z,1.30
2022-09-28T16:56:19.742Z,1.20
2022-09-28T16:58:50.059Z,1.70
2022-09-28T17:01:20.318Z,1.20
2022-09-28T17:03:50.940Z,1.80
2022-09-28T17:06:26.078Z,1.30
2022-09-28T17:08:57.117Z,0.90
2022-09-28T17:11:26.189Z,0.80
2022-09-28T17:13:59.404Z,2.00
2022-09-28T17:19:26.152Z,3.60
2022-09-28T17:21:55.342Z,3.80
2022-09-28T17:24:24.543Z,3.20
2022-09-28T17:26:53.954Z,3.70
2022-09-28T17:29:24.166Z,1.30
2022-09-28T17:31:54.986Z,2.80
2022-09-28T17:34:24.603Z,6.80
2022-09-28T17:36:53.643Z,3.50
2022-09-28T17:39:25.536Z,7.30
2022-09-28T17:41:55.227Z,3.40
2022-09-28T17:44:24.772Z,3.20
2022-09-28T17:46:54.402Z,4.10
2022-09-28T17:49:23.575Z,4.10
2022-09-28T17:51:53.619Z,6.30
2022-09-28T17:54:23.203Z,6.00
2022-09-28T17:56:52.712Z,3.80
2022-09-28T17:59:22.426Z,6.00
2022-09-28T18:01:51.811Z,5.00
2022-09-28T18:04:46.952Z,10.00
2022-09-28T18:07:10.505Z,12.20
2022-09-28T18:09:39.722Z,13.80
2022-09-28T18:12:08.796Z,9.90
2022-09-28T18:14:39.617Z,4.90
2022-09-28T18:17:08.957Z,7.60
2022-09-28T18:19:37.936Z,6.60
2022-09-28T18:22:07.018Z,4.70
2022-09-28T18:24:36.118Z,4.00
2022-09-28T18:27:05.405Z,8.40
2022-09-28T18:29:34.501Z,6.40
2022-09-28T18:32:04.225Z,7.80
2022-09-28T18:34:37.587Z,6.60
2022-09-28T18:37:07.113Z,10.60
2022-09-28T18:39:37.094Z,6.60
2022-09-28T18:42:06.856Z,5.80
2022-09-28T18:44:36.054Z,7.30
2022-09-28T18:47:05.583Z,4.80
2022-09-28T18:49:35.049Z,6.40
2022-09-28T18:52:04.397Z,5.30
2022-09-28T18:54:33.883Z,5.40
2022-09-28T18:57:03.265Z,4.70
2022-09-28T18:59:32.575Z,5.40
2022-09-28T19:02:02.649Z,7.10
2022-09-28T19:04:32.215Z,5.40
2022-09-28T19:07:01.380Z,6.10
2022-09-28T19:09:31.103Z,4.90
2022-09-28T19:12:00.812Z,6.50
2022-09-28T19:14:30.252Z,6.40
2022-09-28T19:16:59.512Z,5.80
2022-09-28T19:19:30.062Z,6.10
2022-09-28T19:21:59.614Z,5.10
2022-09-28T19:24:28.579Z,4.50
2022-09-28T19:26:58.087Z,4.40
2022-09-28T19:29:27.802Z,3.50
2022-09-28T19:31:57.772Z,4.30
2022-09-28T19:34:30.585Z,3.40
2022-09-28T19:37:04.766Z,2.80
2022-09-28T19:39:34.072Z,7.30
2022-09-28T19:42:03.482Z,3.00
2022-09-28T19:44:36.672Z,4.70
2022-09-28T19:47:09.153Z,7.40
2022-09-28T19:49:41.089Z,3.40
2022-09-28T19:52:17.786Z,3.00
2022-09-28T19:54:58.752Z,4.30
2022-09-28T19:57:30.620Z,3.80
2022-09-28T20:00:03.130Z,4.10
2022-09-28T20:02:35.474Z,3.30
2022-09-28T20:05:04.865Z,4.30
2022-09-28T20:07:35.412Z,4.40
2022-09-28T20:10:04.993Z,4.00
2022-09-28T20:12:34.211Z,4.50
2022-09-28T20:15:03.617Z,3.10
2022-09-28T20:17:33.366Z,4.50
2022-09-28T20:20:02.909Z,3.10
2022-09-28T20:22:31.843Z,2.80
2022-09-28T20:25:03.295Z,5.40
2022-09-28T20:27:33.090Z,4.80
2022-09-28T20:30:02.180Z,4.10
2022-09-28T20:32:33.827Z,3.10
2022-09-28T20:35:03.453Z,4.40
2022-09-28T20:37:33.474Z,5.30
2022-09-28T20:40:02.853Z,5.50
2022-09-28T20:42:32.671Z,7.00
2022-09-28T20:45:01.791Z,4.40
2022-09-28T20:47:30.892Z,3.90
2022-09-28T20:50:00.031Z,5.40
2022-09-28T20:52:29.453Z,4.20
2022-09-28T20:54:58.455Z,4.60
2022-09-28T20:57:28.984Z,7.00
2022-09-28T20:59:58.382Z,3.70
2022-09-28T21:02:27.677Z,4.10
2022-09-28T21:04:57.335Z,2.60
2022-09-28T21:07:26.543Z,4.50
2022-09-28T21:09:55.853Z,8.70
2022-09-28T21:12:28.895Z,11.60
2022-09-28T21:15:01.159Z,7.60
2022-09-28T21:17:33.538Z,5.00
2022-09-28T21:20:03.143Z,3.60
2022-09-28T21:22:32.535Z,4.40
2022-09-28T21:25:02.031Z,5.70
2022-09-28T21:27:31.996Z,3.70
2022-09-28T21:30:01.647Z,4.50
2022-09-28T21:32:30.700Z,5.70
2022-09-28T21:35:00.268Z,5.00
2022-09-28T21:37:29.363Z,3.90
2022-09-28T21:39:58.563Z,5.00
2022-09-28T21:42:27.452Z,5.50
2022-09-28T21:44:59.484Z,3.80
2022-09-28T21:47:30.363Z,6.10
2022-09-28T21:49:59.652Z,4.50
2022-09-28T21:52:28.963Z,4.10
2022-09-28T21:54:58.063Z,4.60
2022-09-28T21:57:27.152Z,3.80
2022-09-28T21:59:56.133Z,2.90
2022-09-28T22:02:25.527Z,3.50
2022-09-28T22:04:55.972Z,4.70
2022-09-28T22:07:25.582Z,6.00
2022-09-28T22:09:54.662Z,3.90
2022-09-28T22:12:23.773Z,3.90
2022-09-28T22:14:52.783Z,4.40
2022-09-28T22:17:21.885Z,4.00
2022-09-28T22:19:51.150Z,5.40
2022-09-28T22:22:20.664Z,5.50
2022-09-28T22:24:49.863Z,4.50
2022-09-28T22:27:19.063Z,4.20
2022-09-28T22:29:48.188Z,4.20
2022-09-28T22:32:18.271Z,5.70
2022-09-28T22:34:48.093Z,4.90
2022-09-28T22:37:17.481Z,5.80
2022-09-28T22:39:46.693Z,4.10
2022-09-28T22:42:17.123Z,3.60
2022-09-28T22:44:46.405Z,5.50
2022-09-28T22:47:15.632Z,5.10
2022-09-28T22:49:45.111Z,5.20
2022-09-28T22:52:14.415Z,4.10
2022-09-28T22:54:44.034Z,4.50
2022-09-28T22:57:13.757Z,3.90
2022-09-28T22:59:42.933Z,5.20
2022-09-28T23:02:12.345Z,5.60
2022-09-28T23:04:41.574Z,3.80
2022-09-28T23:07:10.982Z,4.80
2022-09-28T23:09:40.189Z,3.90
2022-09-28T23:12:09.531Z,5.30
2022-09-28T23:14:38.779Z,3.00
2022-09-28T23:17:08.344Z,5.30
2022-09-28T23:19:37.595Z,4.70
2022-09-28T23:22:06.875Z,3.60
2022-09-28T23:24:35.945Z,4.20
2022-09-28T23:27:07.903Z,3.60
2022-09-28T23:29:37.205Z,3.60
2022-09-28T23:32:07.322Z,3.40
2022-09-28T23:34:36.422Z,4.10
2022-09-28T23:37:05.730Z,2.50
2022-09-28T23:39:35.136Z,4.00
2022-09-28T23:42:04.477Z,5.10
2022-09-28T23:44:33.843Z,3.20
2022-09-28T23:47:03.263Z,2.00
2022-09-28T23:49:32.951Z,2.80
2022-09-28T23:52:02.415Z,4.00
2022-09-28T23:54:32.163Z,3.90
2022-09-28T23:57:01.252Z,3.40
2022-09-28T23:59:30.753Z,3.20
